Time;durP1;ratioP1;P1;durP2;ratioP2;P2;SDS_P1;SDS_P2;PMS_P1;PMS_P2;Temp;Humidity;BMP_temperature;BMP_pressure;BME280_temperature;BME280_humidity;BME280_pressure;Samples;Min_cycle;Max_cycle;Signal;HPM_P1;HPM_P2
2022/05/18 00:00:00;;;;;;;3.53;2.30;;;7.40;99.90;;;;;;4942390;29;20059;-77
2022/05/18 00:02:28;;;;;;;2.28;2.13;;;7.30;99.90;;;;;;4932268;28;20130;-77
2022/05/18 00:04:55;;;;;;;2.90;2.70;;;7.20;99.90;;;;;;4932273;29;20146;-77
2022/05/18 00:07:22;;;;;;;2.22;2.03;;;7.10;99.90;;;;;;4917397;29;20106;-77
2022/05/18 00:09:51;;;;;;;2.58;2.38;;;7.00;99.90;;;;;;4933127;29;20554;-77
2022/05/18 00:12:18;;;;;;;4.35;3.22;;;6.90;99.90;;;;;;4932668;29;20146;-76
2022/05/18 00:14:45;;;;;;;3.58;2.42;;;6.90;99.90;;;;;;4928067;29;20416;-77
2022/05/18 00:17:14;;;;;;;2.40;2.20;;;6.80;99.90;;;;;;4921592;29;20508;-77
2022/05/18 00:19:41;;;;;;;2.60;2.40;;;6.80;99.90;;;;;;4931136;29;20048;-77
2022/05/18 00:22:10;;;;;;;2.20;2.00;;;6.70;99.90;;;;;;4929698;29;20079;-77
2022/05/18 00:24:38;;;;;;;2.10;2.00;;;6.70;99.90;;;;;;4932608;29;20582;-77
2022/05/18 00:27:05;;;;;;;2.58;2.38;;;6.60;99.90;;;;;;4932504;29;20055;-77
2022/05/18 00:29:33;;;;;;;4.60;2.50;;;6.60;99.90;;;;;;4931628;29;20048;-77
2022/05/18 00:32:02;;;;;;;2.22;2.05;;;6.50;99.90;;;;;;4931696;29;20055;-78
2022/05/18 00:34:30;;;;;;;2.60;2.40;;;6.60;99.90;;;;;;4915163;29;20111;-78
2022/05/18 00:36:58;;;;;;;2.67;2.42;;;6.50;99.90;;;;;;4933081;29;20174;-78
2022/05/18 00:39:25;;;;;;;3.22;2.50;;;6.50;99.90;;;;;;4931211;29;20063;-77
2022/05/18 00:41:52;;;;;;;3.05;2.28;;;6.50;99.90;;;;;;4930706;29;20491;-77
2022/05/18 00:44:21;;;;;;;2.28;2.17;;;6.40;99.90;;;;;;4929949;29;20051;-77
2022/05/18 00:46:48;;;;;;;2.70;2.50;;;6.40;99.90;;;;;;4933030;29;20056;-78
2022/05/18 00:49:15;;;;;;;2.20;2.10;;;6.40;99.90;;;;;;4930026;29;20075;-78
2022/05/18 00:51:46;;;;;;;2.53;2.33;;;6.30;99.90;;;;;;4932596;29;20044;-77
2022/05/18 00:54:18;;;;;;;6.15;3.40;;;6.30;99.90;;;;;;4934965;29;20138;-78
2022/05/18 00:56:51;;;;;;;2.60;2.40;;;6.30;99.90;;;;;;4943352;28;20056;-76
2022/05/18 00:59:21;;;;;;;2.78;2.58;;;6.20;99.90;;;;;;4929372;29;20472;-78
2022/05/18 01:01:50;;;;;;;2.78;2.40;;;6.20;99.90;;;;;;4931909;29;20061;-78
2022/05/18 01:04:18;;;;;;;2.67;2.47;;;6.20;99.90;;;;;;4933321;29;20527;-78
2022/05/18 01:06:52;;;;;;;3.00;2.75;;;6.10;99.90;;;;;;4929461;29;20154;-78
2022/05/18 01:09:22;;;;;;;8.88;2.67;;;6.10;99.90;;;;;;4913141;29;20143;-77
2022/05/18 01:11:50;;;;;;;3.70;2.95;;;6.00;99.90;;;;;;4928965;29;20055;-77
2022/05/18 01:14:21;;;;;;;3.30;2.92;;;6.00;99.90;;;;;;4918532;29;20086;-77
2022/05/18 01:16:50;;;;;;;2.88;2.67;;;6.00;99.90;;;;;;4929111;29;20057;-78
2022/05/18 01:19:30;;;;;;;4.38;2.85;;;6.00;99.90;;;;;;4915297;29;20059;-78
2022/05/18 01:22:05;;;;;;;4.47;3.08;;;5.90;99.90;;;;;;4931531;29;20055;-79
2022/05/18 01:24:40;;;;;;;4.07;2.88;;;5.90;99.90;;;;;;4914823;29;20043;-78
2022/05/18 01:27:09;;;;;;;4.05;3.28;;;5.90;99.90;;;;;;4927594;29;20051;-78
2022/05/18 01:29:36;;;;;;;5.57;4.22;;;5.90;99.90;;;;;;4932110;29;20052;-77
2022/05/18 01:32:06;;;;;;;3.65;3.35;;;5.80;99.90;;;;;;4931863;29;20520;-77
2022/05/18 01:34:35;;;;;;;5.30;3.95;;;5.80;99.90;;;;;;4912656;29;20044;-79
2022/05/18 01:37:03;;;;;;;3.13;2.90;;;5.80;99.90;;;;;;4948642;29;20078;-77
2022/05/18 01:39:33;;;;;;;4.82;4.03;;;5.80;99.90;;;;;;4946353;28;20058;-78
2022/05/18 01:42:12;;;;;;;5.55;3.92;;;5.80;99.90;;;;;;4932816;29;20548;-78
2022/05/18 01:44:40;;;;;;;4.28;3.35;;;5.80;99.90;;;;;;4928260;29;20135;-78
2022/05/18 01:47:08;;;;;;;4.43;3.47;;;5.80;99.90;;;;;;4914531;29;20082;-77
2022/05/18 01:49:39;;;;;;;12.18;3.63;;;5.80;99.90;;;;;;4924820;29;20468;-78
2022/05/18 01:52:10;;;;;;;4.07;3.70;;;5.80;99.90;;;;;;4913244;29;20052;-77
2022/05/18 01:54:38;;;;;;;5.25;4.40;;;5.80;99.90;;;;;;4931840;29;20078;-77
2022/05/18 01:57:06;;;;;;;3.83;3.22;;;5.80;99.90;;;;;;4932796;29;20051;-77
2022/05/18 01:59:36;;;;;;;3.60;3.30;;;5.80;99.90;;;;;;4936698;29;20126;-77
2022/05/18 02:02:04;;;;;;;3.50;3.20;;;5.80;99.90;;;;;;4933553;29;20051;-78
2022/05/18 02:04:32;;;;;;;5.75;3.28;;;5.80;99.90;;;;;;4935078;29;20081;-77
2022/05/18 02:07:00;;;;;;;5.72;3.80;;;5.80;99.90;;;;;;4935525;29;20416;-77
2022/05/18 02:09:27;;;;;;;4.05;3.75;;;5.90;99.90;;;;;;4936448;29;20447;-78
2022/05/18 02:11:55;;;;;;;4.65;3.40;;;5.90;99.90;;;;;;4933823;29;20051;-78
2022/05/18 02:14:24;;;;;;;3.90;3.60;;;6.00;99.90;;;;;;4938396;28;20150;-77
2022/05/18 02:16:53;;;;;;;3.97;3.67;;;5.90;99.90;;;;;;4937036;29;20479;-77
2022/05/18 02:19:20;;;;;;;4.88;3.67;;;5.90;99.90;;;;;;4920749;29;20043;-77
2022/05/18 02:21:47;;;;;;;7.88;3.88;;;6.00;99.90;;;;;;4933962;29;20443;-77
2022/05/18 02:24:14;;;;;;;4.38;3.20;;;6.00;99.90;;;;;;4934288;29;20043;-78
2022/05/18 02:26:42;;;;;;;4.25;3.92;;;6.10;99.90;;;;;;4934047;29;20043;-78
2022/05/18 02:29:09;;;;;;;3.60;3.30;;;6.10;99.90;;;;;;4933510;29;20069;-77
2022/05/18 02:31:36;;;;;;;4.18;3.63;;;6.20;99.90;;;;;;4917002;29;20276;-77
2022/05/18 02:34:05;;;;;;;3.50;3.20;;;6.30;99.90;;;;;;4934399;29;20134;-77
2022/05/18 02:36:34;;;;;;;5.93;3.70;;;6.40;99.90;;;;;;4934649;29;20056;-76
2022/05/18 02:39:01;;;;;;;3.95;3.65;;;6.50;99.90;;;;;;4934863;29;20549;-77
2022/05/18 02:41:28;;;;;;;4.30;3.90;;;6.60;99.90;;;;;;4935468;29;20458;-77
2022/05/18 02:43:56;;;;;;;4.95;3.72;;;6.70;99.90;;;;;;4935242;29;20051;-77
2022/05/18 02:46:23;;;;;;;5.25;3.60;;;6.80;99.90;;;;;;4934412;29;20051;-77
2022/05/18 02:48:54;;;;;;;6.00;3.30;;;7.00;99.90;;;;;;4932745;29;20052;-77
2022/05/18 02:51:23;;;;;;;10.95;3.72;;;7.10;99.90;;;;;;4934158;29;20055;-77
2022/05/18 02:53:50;;;;;;;4.80;3.42;;;7.20;99.90;;;;;;4934339;29;20083;-77
2022/05/18 02:56:23;;;;;;;4.30;3.90;;;7.30;99.90;;;;;;4930939;29;20521;-76
2022/05/18 02:58:52;;;;;;;4.30;3.50;;;7.40;99.90;;;;;;4916043;29;20044;-77
2022/05/18 03:01:21;;;;;;;5.40;4.07;;;7.40;99.90;;;;;;4934129;29;20051;-78
2022/05/18 03:03:49;;;;;;;4.30;3.90;;;7.50;99.90;;;;;;4934983;29;20071;-78
2022/05/18 03:06:19;;;;;;;5.20;3.42;;;7.60;99.90;;;;;;4931468;29;20048;-76
2022/05/18 03:08:48;;;;;;;4.60;3.22;;;7.60;99.90;;;;;;4932623;29;20079;-76
2022/05/18 03:11:16;;;;;;;6.13;3.17;;;7.70;99.90;;;;;;4933367;29;20402;-79
2022/05/18 03:13:43;;;;;;;4.28;3.90;;;7.80;99.90;;;;;;4934541;29;20147;-77
2022/05/18 03:16:11;;;;;;;4.43;4.13;;;7.90;99.90;;;;;;4933422;29;20150;-77
2022/05/18 03:18:39;;;;;;;3.67;3.38;;;8.00;99.90;;;;;;4933565;29;20126;-77
2022/05/18 03:23:51;;;;;;;3.75;3.45;;;8.00;99.90;;;;;;4934091;29;20134;-77
2022/05/18 03:26:21;;;;;;;3.67;3.35;;;8.10;99.90;;;;;;4925586;29;20067;-78
2022/05/18 03:28:51;;;;;;;17.50;11.48;;;8.10;99.90;;;;;;4924620;29;20056;-77
2022/05/18 03:31:19;;;;;;;3.92;3.63;;;8.20;99.90;;;;;;4933749;29;20051;-79
2022/05/18 03:33:48;;;;;;;4.60;3.42;;;8.20;99.90;;;;;;4932396;29;20102;-78
2022/05/18 03:36:16;;;;;;;3.40;3.20;;;8.20;99.90;;;;;;4928425;29;20048;-78
2022/05/18 03:38:46;;;;;;;6.05;3.60;;;8.20;99.90;;;;;;4931822;29;20056;-78
2022/05/18 03:41:16;;;;;;;5.70;3.50;;;8.20;99.90;;;;;;4914182;29;20083;-78
2022/05/18 03:43:44;;;;;;;3.03;2.78;;;8.20;99.90;;;;;;4925971;29;20522;-78
2022/05/18 03:46:12;;;;;;;29.95;4.70;;;8.10;99.90;;;;;;4915826;29;20051;-78
2022/05/18 03:48:40;;;;;;;6.85;3.08;;;8.10;99.90;;;;;;4932143;29;20074;-78
2022/05/18 03:51:09;;;;;;;15.25;3.97;;;8.10;99.90;;;;;;4931981;29;20142;-78
2022/05/18 03:53:37;;;;;;;5.40;3.60;;;8.10;99.90;;;;;;4932964;29;20067;-77
2022/05/18 03:56:05;;;;;;;17.70;3.50;;;8.10;99.90;;;;;;4932984;29;20579;-78
2022/05/18 03:58:33;;;;;;;5.65;3.58;;;8.10;99.90;;;;;;4933933;29;20048;-78
2022/05/18 04:01:08;;;;;;;4.30;3.42;;;8.20;99.90;;;;;;4931137;29;20122;-79
2022/05/18 04:03:36;;;;;;;3.88;3.58;;;8.20;99.90;;;;;;4931603;29;20056;-78
2022/05/18 04:06:03;;;;;;;3.83;3.53;;;8.20;99.90;;;;;;4934080;29;20274;-78
2022/05/18 04:08:30;;;;;;;4.30;3.10;;;8.20;99.90;;;;;;4929177;29;20094;-78
2022/05/18 04:10:58;;;;;;;9.43;3.95;;;8.20;99.90;;;;;;4932165;29;20076;-78
2022/05/18 04:13:26;;;;;;;3.55;3.25;;;8.30;99.90;;;;;;4932898;29;20103;-78
2022/05/18 04:15:55;;;;;;;6.22;3.25;;;8.30;99.90;;;;;;4933756;29;20066;-77
2022/05/18 04:18:24;;;;;;;5.07;3.80;;;8.40;99.90;;;;;;4929312;29;20051;-76
2022/05/18 04:20:53;;;;;;;4.75;3.38;;;8.50;99.90;;;;;;4933006;29;20508;-77
2022/05/18 04:23:23;;;;;;;5.15;3.78;;;8.60;99.90;;;;;;4931496;29;20139;-76
2022/05/18 04:25:50;;;;;;;3.47;3.05;;;8.70;99.90;;;;;;4933370;29;20056;-76
2022/05/18 04:28:17;;;;;;;4.30;2.95;;;8.80;99.90;;;;;;4927921;29;20075;-75
2022/05/18 04:30:47;;;;;;;3.38;3.08;;;9.00;99.90;;;;;;4931665;29;20457;-75
2022/05/18 04:33:19;;;;;;;3.42;2.70;;;9.00;99.90;;;;;;4931913;29;20138;-77
2022/05/18 04:35:46;;;;;;;3.85;3.08;;;9.10;99.90;;;;;;4928356;29;20071;-74
2022/05/18 04:38:13;;;;;;;6.47;2.70;;;9.30;99.90;;;;;;4937062;29;20039;-77
2022/05/18 04:40:43;;;;;;;3.33;2.53;;;9.40;99.90;;;;;;4947429;28;20082;-76
2022/05/18 04:43:11;;;;;;;3.08;2.83;;;9.40;99.90;;;;;;4934395;29;20592;-77
2022/05/18 04:45:44;;;;;;;5.32;2.30;;;9.60;99.90;;;;;;4913347;29;20054;-76
2022/05/18 04:48:25;;;;;;;2.95;2.75;;;9.70;99.90;;;;;;4929867;29;21985;-78
2022/05/18 04:50:53;;;;;;;9.55;2.60;;;9.80;99.90;;;;;;4929308;29;20059;-76
2022/05/18 04:53:24;;;;;;;2.55;2.35;;;9.90;99.90;;;;;;4930280;29;20581;-79
2022/05/18 04:55:54;;;;;;;2.47;2.30;;;10.00;99.90;;;;;;4937179;29;20110;-77
2022/05/18 04:58:22;;;;;;;3.53;2.30;;;10.10;99.90;;;;;;4931530;29;20059;-77
2022/05/18 05:01:04;;;;;;;2.22;2.10;;;10.10;99.90;;;;;;4926562;29;20050;-78
2022/05/18 05:03:33;;;;;;;4.15;2.40;;;10.00;99.90;;;;;;4930857;29;20055;-77
2022/05/18 05:06:01;;;;;;;8.15;2.60;;;10.00;99.90;;;;;;4928941;29;20460;-77
2022/05/18 05:08:29;;;;;;;2.67;1.67;;;9.90;99.90;;;;;;4934393;29;20071;-76
2022/05/18 05:10:57;;;;;;;6.97;2.47;;;9.80;99.90;;;;;;4933145;29;20051;-76
2022/05/18 05:13:25;;;;;;;3.75;3.17;;;9.70;99.90;;;;;;4928950;29;20407;-76
2022/05/18 05:16:04;;;;;;;2.05;1.95;;;9.70;99.90;;;;;;4912570;29;20100;-77
2022/05/18 05:18:34;;;;;;;3.60;2.28;;;9.70;99.90;;;;;;4929690;29;20087;-75
2022/05/18 05:21:05;;;;;;;7.05;3.58;;;9.80;99.90;;;;;;4928295;29;20461;-75
2022/05/18 05:23:33;;;;;;;3.05;1.95;;;9.80;99.90;;;;;;4923608;29;20063;-78
2022/05/18 05:26:00;;;;;;;2.53;1.95;;;9.90;99.90;;;;;;4932250;28;20134;-77
2022/05/18 05:28:28;;;;;;;4.03;1.75;;;9.90;99.90;;;;;;4932119;29;20520;-75
2022/05/18 05:30:55;;;;;;;3.65;1.95;;;10.10;99.90;;;;;;4934196;29;20064;-75
2022/05/18 05:33:23;;;;;;;4.72;1.92;;;10.30;99.90;;;;;;4932480;29;20047;-77
2022/05/18 05:35:51;;;;;;;2.45;1.70;;;10.40;99.90;;;;;;4929199;29;20127;-77
2022/05/18 05:38:21;;;;;;;5.05;2.17;;;10.40;99.90;;;;;;4930885;29;20060;-75
2022/05/18 05:40:55;;;;;;;1.95;1.85;;;10.40;99.90;;;;;;4908069;29;20044;-76
2022/05/18 05:43:34;;;;;;;3.03;2.28;;;10.40;99.90;;;;;;4925799;29;20050;-77
2022/05/18 05:46:03;;;;;;;2.30;1.90;;;10.30;99.90;;;;;;4916585;29;20055;-77
2022/05/18 05:48:31;;;;;;;2.20;1.70;;;10.20;99.90;;;;;;4928055;29;20692;-77
2022/05/18 05:51:13;;;;;;;3.47;2.25;;;10.20;99.90;;;;;;4932162;29;20062;-78
2022/05/18 05:53:40;;;;;;;2.38;2.10;;;10.20;99.90;;;;;;4921754;29;20426;-75
2022/05/18 05:56:16;;;;;;;3.95;2.10;;;10.30;99.90;;;;;;4912750;29;20059;-79
2022/05/18 05:58:43;;;;;;;3.13;2.03;;;10.40;99.90;;;;;;4918304;29;20048;-77
2022/05/18 06:01:12;;;;;;;4.32;2.00;;;10.50;99.90;;;;;;4933714;29;20055;-76
2022/05/18 06:03:40;;;;;;;13.85;2.30;;;10.50;99.90;;;;;;4934813;29;20156;-76
2022/05/18 06:06:15;;;;;;;2.35;1.60;;;10.60;99.90;;;;;;4919618;29;20190;-76
2022/05/18 06:08:43;;;;;;;2.88;2.00;;;10.70;99.90;;;;;;4916854;29;20512;-75
2022/05/18 06:11:11;;;;;;;3.90;1.52;;;10.70;99.90;;;;;;4931420;29;20071;-78
2022/05/18 06:13:38;;;;;;;2.05;1.45;;;10.70;99.90;;;;;;4932713;29;20040;-76
2022/05/18 06:16:07;;;;;;;4.90;1.75;;;10.70;99.90;;;;;;4937462;29;20110;-75
2022/05/18 06:18:45;;;;;;;3.13;1.83;;;11.00;99.90;;;;;;4929212;29;20159;-76
2022/05/18 06:21:13;;;;;;;6.13;1.63;;;11.20;99.90;;;;;;4944106;29;20062;-75
2022/05/18 06:23:41;;;;;;;2.70;1.60;;;11.40;99.90;;;;;;4940180;29;20035;-76
2022/05/18 06:26:08;;;;;;;5.55;1.80;;;11.60;99.90;;;;;;4946112;29;20056;-84
2022/05/18 06:28:36;;;;;;;6.40;1.70;;;11.60;99.90;;;;;;4943791;28;20063;-82
2022/05/18 06:31:04;;;;;;;2.80;1.95;;;11.70;99.90;;;;;;4943464;29;20095;-79
2022/05/18 06:33:32;;;;;;;3.63;1.60;;;11.90;99.90;;;;;;4940222;29;20103;-80
2022/05/18 06:35:59;;;;;;;3.72;1.77;;;12.40;99.90;;;;;;4948005;28;20058;-79
2022/05/18 06:38:28;;;;;;;1.60;1.50;;;12.70;99.90;;;;;;4947463;28;20062;-79
2022/05/18 06:43:40;;;;;;;1.98;1.52;;;13.40;99.90;;;;;;4946690;29;20051;-82
2022/05/18 06:46:08;;;;;;;5.55;1.40;;;13.50;99.90;;;;;;4940112;29;20575;-80
2022/05/18 06:48:35;;;;;;;3.13;1.60;;;13.70;96.40;;;;;;4933916;29;20056;-79
2022/05/18 06:51:05;;;;;;;5.28;1.75;;;13.90;95.40;;;;;;4942266;29;20110;-80
2022/05/18 06:53:34;;;;;;;1.88;1.60;;;14.40;94.20;;;;;;4922248;29;20416;-80
2022/05/18 06:56:02;;;;;;;4.03;1.60;;;14.90;92.10;;;;;;4923574;29;20431;-80
2022/05/18 06:58:29;;;;;;;2.72;1.65;;;15.70;86.90;;;;;;4934686;29;20103;-79
2022/05/18 07:00:56;;;;;;;4.10;1.75;;;16.00;79.50;;;;;;4940565;29;20058;-80
2022/05/18 07:03:23;;;;;;;4.45;2.13;;;16.00;77.80;;;;;;4932591;29;20039;-78
2022/05/18 07:05:51;;;;;;;3.03;1.65;;;15.70;77.20;;;;;;4932058;29;20052;-80
2022/05/18 07:08:19;;;;;;;2.30;1.63;;;15.30;78.60;;;;;;4938226;29;20122;-81
2022/05/18 07:10:47;;;;;;;2.08;1.40;;;14.70;80.70;;;;;;4934331;29;20067;-79
2022/05/18 07:13:17;;;;;;;2.00;1.70;;;14.30;83.20;;;;;;4934963;29;20572;-80
2022/05/18 07:15:45;;;;;;;2.40;2.20;;;14.20;86.50;;;;;;4936308;29;20051;-79
2022/05/18 07:18:13;;;;;;;4.50;2.08;;;14.20;91.10;;;;;;4936986;28;20497;-78
2022/05/18 07:20:41;;;;;;;2.22;1.90;;;14.30;93.50;;;;;;4932702;29;20485;-79
2022/05/18 07:23:08;;;;;;;7.50;2.10;;;14.20;93.10;;;;;;4938168;29;20051;-79
2022/05/18 07:25:36;;;;;;;2.08;1.70;;;14.50;94.60;;;;;;4941121;29;20075;-78
2022/05/18 07:28:05;;;;;;;1.70;1.60;;;15.30;91.60;;;;;;4930573;29;20142;-78
2022/05/18 07:30:33;;;;;;;2.15;1.67;;;16.20;85.60;;;;;;4932437;29;20063;-79
2022/05/18 07:33:00;;;;;;;3.08;1.55;;;16.90;82.00;;;;;;4933586;29;20051;-79
2022/05/18 07:35:28;;;;;;;1.63;1.52;;;17.40;78.00;;;;;;4933318;29;20059;-79
2022/05/18 07:37:57;;;;;;;3.85;2.15;;;17.20;75.60;;;;;;4932536;29;20534;-78
2022/05/18 07:40:25;;;;;;;4.72;2.03;;;16.90;76.00;;;;;;4933114;29;20047;-79
2022/05/18 07:42:56;;;;;;;3.00;2.15;;;16.50;76.50;;;;;;4932199;29;20052;-78
2022/05/18 07:45:25;;;;;;;1.52;1.42;;;16.10;75.60;;;;;;4932615;29;20530;-80
2022/05/18 07:47:53;;;;;;;2.78;1.73;;;15.60;76.90;;;;;;4915937;29;20059;-78
2022/05/18 07:50:21;;;;;;;6.40;1.90;;;15.30;80.30;;;;;;4934421;29;20040;-74
2022/05/18 07:52:48;;;;;;;2.67;1.75;;;15.20;82.10;;;;;;4915965;29;20504;-75
2022/05/18 07:55:16;;;;;;;3.75;1.63;;;15.30;81.10;;;;;;4931378;29;20154;-76
2022/05/18 07:57:44;;;;;;;5.30;1.80;;;15.60;80.50;;;;;;4923992;29;20090;-76
2022/05/18 08:00:13;;;;;;;2.42;1.33;;;16.10;76.80;;;;;;4933780;29;20054;-75
2022/05/18 08:02:42;;;;;;;2.20;1.40;;;16.70;75.80;;;;;;4929960;29;20154;-74
2022/05/18 08:05:09;;;;;;;1.80;1.70;;;17.60;72.80;;;;;;4932785;28;20051;-74
2022/05/18 08:07:37;;;;;;;5.75;1.80;;;18.30;70.30;;;;;;4932500;29;20172;-75
2022/05/18 08:15:34;;;;;;;2.05;1.70;;;18.20;66.30;;;;;;4930634;29;20504;-76
2022/05/18 08:18:02;;;;;;;2.97;1.67;;;17.80;66.00;;;;;;4933379;28;20567;-74
2022/05/18 08:20:30;;;;;;;1.60;1.50;;;17.30;67.20;;;;;;4931113;29;20062;-77
2022/05/18 08:22:57;;;;;;;7.10;1.98;;;16.90;69.10;;;;;;4931008;29;20095;-75
2022/05/18 08:25:24;;;;;;;1.77;1.67;;;16.50;70.20;;;;;;4913877;29;20139;-75
2022/05/18 08:27:52;;;;;;;2.92;1.88;;;16.20;70.90;;;;;;4934013;29;20060;-75
2022/05/18 08:30:22;;;;;;;2.20;1.63;;;15.70;73.40;;;;;;4930370;29;20051;-76
2022/05/18 08:32:50;;;;;;;1.48;1.38;;;15.30;73.90;;;;;;4932496;29;20151;-75
2022/05/18 08:35:19;;;;;;;6.65;1.40;;;14.90;72.30;;;;;;4921087;29;20051;-76
2022/05/18 08:37:48;;;;;;;2.28;2.08;;;14.80;73.30;;;;;;4940925;29;20136;-75
2022/05/18 08:40:27;;;;;;;3.50;2.15;;;14.80;75.80;;;;;;4936022;29;20047;-76
2022/05/18 08:42:55;;;;;;;3.00;1.58;;;15.10;73.90;;;;;;4937984;29;20114;-74
2022/05/18 08:45:24;;;;;;;4.18;1.58;;;15.20;73.60;;;;;;4938142;29;20074;-74
2022/05/18 08:47:59;;;;;;;3.38;2.22;;;15.60;73.30;;;;;;4936343;29;20127;-74
2022/05/18 08:50:29;;;;;;;5.53;1.90;;;16.40;72.30;;;;;;4938679;29;20059;-75
2022/05/18 08:53:05;;;;;;;3.78;1.63;;;17.10;68.10;;;;;;4939191;28;20515;-75
2022/05/18 08:55:58;;;;;;;4.53;2.20;;;17.30;63.70;;;;;;4940276;29;20050;-76
2022/05/18 08:58:36;;;;;;;7.18;2.25;;;16.90;63.40;;;;;;4920497;29;20043;-76
2022/05/18 09:01:10;;;;;;;4.95;2.67;;;16.70;63.30;;;;;;4936888;29;20047;-76
2022/05/18 09:03:41;;;;;;;7.03;2.42;;;16.50;64.60;;;;;;4938999;29;20047;-74
2022/05/18 09:06:18;;;;;;;5.30;2.40;;;16.60;66.90;;;;;;4921172;29;20047;-76
2022/05/18 09:10:12;;;;;;;2.78;1.40;;;16.70;66.00;;;;;;4937369;29;20059;-75
2022/05/18 09:11:41;;;;;;;1.92;1.00;;;16.60;63.30;;;;;;4938555;29;20051;-75
2022/05/18 09:14:10;;;;;;;4.82;1.13;;;16.30;61.60;;;;;;4939300;29;20070;-75
2022/05/18 09:16:44;;;;;;;4.45;1.23;;;16.20;60.80;;;;;;4936016;29;20047;-75
2022/05/18 09:19:22;;;;;;;5.78;1.70;;;16.50;58.40;;;;;;4937390;29;20143;-76
2022/05/18 09:21:59;;;;;;;4.10;1.30;;;17.10;56.60;;;;;;4937087;29;20420;-74
2022/05/18 09:24:40;;;;;;;2.10;1.40;;;17.40;56.20;;;;;;4937708;29;20039;-76
2022/05/18 09:27:31;;;;;;;2.65;1.45;;;17.80;56.20;;;;;;4933439;29;20380;-75
2022/05/18 09:30:08;;;;;;;4.25;1.40;;;18.60;54.40;;;;;;4936571;29;20078;-75
2022/05/18 09:32:51;;;;;;;14.88;1.50;;;19.20;53.80;;;;;;4940410;29;20511;-77
2022/05/18 09:35:45;;;;;;;4.60;1.40;;;19.50;52.10;;;;;;4937377;29;20074;-76
2022/05/18 09:38:19;;;;;;;5.10;1.85;;;20.10;51.70;;;;;;4937425;29;20355;-75
2022/05/18 09:40:48;;;;;;;2.60;1.38;;;20.50;51.00;;;;;;4939840;29;20154;-76
2022/05/18 09:43:26;;;;;;;4.03;1.25;;;20.80;51.30;;;;;;4938486;29;20048;-77
2022/05/18 09:45:55;;;;;;;2.28;1.48;;;21.20;51.50;;;;;;4937589;29;20501;-75
2022/05/18 09:48:37;;;;;;;3.80;1.30;;;21.60;51.80;;;;;;4936939;29;20509;-75
2022/05/18 09:51:05;;;;;;;7.57;1.65;;;21.70;51.00;;;;;;4938611;29;20141;-75
2022/05/18 09:53:34;;;;;;;2.10;1.30;;;22.10;50.80;;;;;;4934380;29;20139;-78
2022/05/18 09:56:01;;;;;;;4.93;1.10;;;22.80;49.50;;;;;;4937813;28;20452;-75
2022/05/18 09:58:35;;;;;;;4.97;1.40;;;23.00;49.30;;;;;;4938060;29;20058;-77
2022/05/18 10:09:27;;;;;;;1.85;1.17;;;22.00;49.10;;;;;;4940496;29;20054;-77
2022/05/18 10:11:54;;;;;;;5.53;1.10;;;21.70;49.60;;;;;;4937446;29;20424;-77
2022/05/18 10:14:32;;;;;;;3.33;1.70;;;21.80;50.20;;;;;;4939374;28;20110;-77
2022/05/18 10:17:05;;;;;;;2.90;1.23;;;21.90;49.50;;;;;;4939213;29;20075;-76
2022/05/18 10:19:36;;;;;;;1.80;1.13;;;22.10;49.50;;;;;;4944298;29;20147;-76
2022/05/18 10:22:06;;;;;;;5.88;1.52;;;22.40;49.40;;;;;;4940638;29;20078;-77
2022/05/18 10:24:40;;;;;;;5.97;1.55;;;22.50;48.80;;;;;;4941545;29;20147;-76
2022/05/18 10:27:27;;;;;;;5.38;1.20;;;22.10;48.90;;;;;;4938457;29;20043;-77
2022/05/18 10:30:08;;;;;;;3.60;1.15;;;22.20;49.30;;;;;;4938942;29;20051;-76
2022/05/18 10:32:37;;;;;;;6.90;1.30;;;22.40;48.90;;;;;;4942026;29;20051;-76
2022/05/18 10:35:05;;;;;;;7.80;1.25;;;22.90;48.50;;;;;;4940833;29;20051;-78
2022/05/18 10:37:35;;;;;;;2.78;1.10;;;23.10;46.80;;;;;;4946362;28;20051;-78
2022/05/18 10:40:06;;;;;;;12.13;1.27;;;23.30;46.00;;;;;;4940363;29;20516;-78
2022/05/18 10:42:44;;;;;;;4.68;0.98;;;23.60;44.60;;;;;;4942079;29;20095;-78
2022/05/18 10:45:32;;;;;;;6.97;1.23;;;22.80;45.30;;;;;;4942908;29;20052;-79
2022/05/18 10:48:05;;;;;;;6.65;1.33;;;23.10;44.10;;;;;;4941818;29;20047;-78
2022/05/18 10:50:35;;;;;;;5.85;1.27;;;23.50;44.30;;;;;;4943247;28;20063;-77
2022/05/18 10:53:19;;;;;;;11.98;1.30;;;24.00;43.50;;;;;;4938631;29;20058;-76
2022/05/18 10:56:00;;;;;;;7.47;1.35;;;24.30;42.40;;;;;;4944698;29;20055;-77
2022/05/18 10:58:30;;;;;;;17.23;2.05;;;23.90;42.40;;;;;;4940491;28;20099;-77
2022/05/18 11:01:02;;;;;;;4.60;1.70;;;23.80;43.30;;;;;;4942890;29;20465;-78
2022/05/18 11:03:36;;;;;;;5.83;1.40;;;24.20;43.10;;;;;;4937389;29;20252;-77
2022/05/18 11:06:08;;;;;;;7.43;0.95;;;24.10;43.50;;;;;;4925688;29;20292;-77
2022/05/18 11:08:35;;;;;;;6.95;1.52;;;23.40;44.30;;;;;;4939092;29;20048;-78
2022/05/18 11:11:13;;;;;;;7.50;1.23;;;23.40;44.80;;;;;;4939049;29;20051;-76
2022/05/18 11:13:46;;;;;;;4.95;1.17;;;23.90;45.00;;;;;;4940408;29;20060;-77
2022/05/18 11:16:32;;;;;;;9.05;1.38;;;24.50;44.30;;;;;;4940775;29;20555;-77
2022/05/18 11:19:06;;;;;;;9.90;1.52;;;24.70;42.90;;;;;;4940762;29;20047;-78
2022/05/18 11:21:46;;;;;;;9.00;2.28;;;23.50;43.90;;;;;;4939191;28;20482;-77
2022/05/18 11:24:23;;;;;;;10.43;1.33;;;22.90;44.30;;;;;;4942745;29;20055;-76
2022/05/18 11:27:03;;;;;;;5.70;1.65;;;22.30;45.30;;;;;;4937785;29;20087;-77
2022/05/18 11:29:50;;;;;;;3.85;1.50;;;22.10;46.30;;;;;;4939685;28;20063;-77
2022/05/18 11:32:26;;;;;;;13.25;1.83;;;22.70;46.10;;;;;;4939528;29;20582;-78
2022/05/18 11:35:06;;;;;;;8.68;1.67;;;23.40;45.10;;;;;;4939801;28;20043;-77
2022/05/18 11:37:59;;;;;;;5.55;1.55;;;23.80;44.90;;;;;;4939308;29;20059;-78
2022/05/18 11:40:37;;;;;;;2.25;1.27;;;24.10;44.30;;;;;;4940188;29;20062;-78
2022/05/18 11:43:29;;;;;;;4.43;0.98;;;23.40;44.60;;;;;;4942203;29;20055;-79
2022/05/18 11:46:18;;;;;;;2.88;1.02;;;23.20;45.10;;;;;;4938419;29;20063;-78
2022/05/18 11:48:54;;;;;;;6.47;1.50;;;23.60;44.30;;;;;;4936788;29;20512;-77
2022/05/18 11:51:34;;;;;;;5.25;1.20;;;23.20;44.90;;;;;;4942359;29;20048;-77
2022/05/18 11:54:12;;;;;;;4.32;1.27;;;22.60;45.40;;;;;;4937998;29;20047;-78
2022/05/18 11:56:46;;;;;;;6.15;1.35;;;22.20;46.30;;;;;;4940705;29;20062;-79
2022/05/18 11:59:33;;;;;;;7.13;1.40;;;21.90;46.80;;;;;;4939490;29;20051;-79
2022/05/18 12:02:20;;;;;;;7.13;1.27;;;21.80;47.20;;;;;;4941114;29;20055;-76
2022/05/18 12:05:14;;;;;;;6.32;1.60;;;22.10;46.70;;;;;;4938304;29;20082;-77
2022/05/18 12:08:24;;;;;;;3.80;1.05;;;22.90;46.30;;;;;;4937472;29;20107;-78
2022/05/18 12:11:01;;;;;;;4.95;2.22;;;24.10;45.00;;;;;;4941392;29;20055;-80
2022/05/18 12:13:35;;;;;;;6.03;2.15;;;24.40;44.20;;;;;;4937478;29;20043;-78
2022/05/18 12:16:11;;;;;;;7.05;2.17;;;24.70;44.40;;;;;;4939018;29;20092;-77
2022/05/18 12:18:41;;;;;;;5.90;2.08;;;25.00;44.10;;;;;;4940831;29;20432;-79
2022/05/18 12:21:15;;;;;;;5.40;4.18;;;25.30;43.10;;;;;;4935497;29;20119;-80
2022/05/18 12:23:48;;;;;;;6.47;2.25;;;25.80;43.20;;;;;;4936095;29;20547;-78
2022/05/18 12:26:17;;;;;;;6.65;1.60;;;26.50;42.70;;;;;;4938588;29;20118;-79
2022/05/18 12:28:45;;;;;;;5.30;1.30;;;26.70;41.40;;;;;;4940958;29;20397;-74
2022/05/18 12:31:14;;;;;;;7.10;1.30;;;27.30;40.90;;;;;;4935919;29;20558;-73
2022/05/18 12:33:47;;;;;;;2.42;1.42;;;27.20;40.60;;;;;;4938042;29;20039;-73
2022/05/18 12:36:17;;;;;;;4.22;1.50;;;27.50;41.10;;;;;;4935269;29;20055;-73
2022/05/18 12:38:55;;;;;;;3.13;1.67;;;27.80;40.10;;;;;;4938719;29;20503;-74
2022/05/18 12:41:27;;;;;;;5.20;1.50;;;28.10;40.00;;;;;;4934659;29;20142;-74
2022/05/18 12:44:07;;;;;;;6.25;1.63;;;28.20;39.60;;;;;;4939238;29;20102;-77
2022/05/18 12:46:39;;;;;;;6.32;1.50;;;28.40;39.50;;;;;;4924140;29;20563;-78
2022/05/18 12:49:11;;;;;;;4.90;1.60;;;28.60;39.20;;;;;;4939467;29;20048;-78
2022/05/18 12:51:46;;;;;;;5.53;1.70;;;29.00;39.20;;;;;;4925822;29;20052;-79
2022/05/18 12:54:26;;;;;;;4.28;1.25;;;29.00;37.60;;;;;;4923491;29;20529;-79
2022/05/18 12:57:23;;;;;;;7.20;2.03;;;28.40;38.60;;;;;;4929971;29;20047;-79
2022/05/18 13:00:07;;;;;;;6.03;1.63;;;27.90;39.20;;;;;;4925591;29;20183;-81
2022/05/18 13:02:43;;;;;;;3.63;1.30;;;27.90;38.60;;;;;;4930516;29;20544;-76
2022/05/18 13:05:42;;;;;;;6.60;1.63;;;27.80;38.50;;;;;;4932378;29;20473;-78
2022/05/18 13:08:40;;;;;;;6.53;2.40;;;27.60;38.60;;;;;;4927257;29;20054;-76
2022/05/18 13:11:12;;;;;;;7.38;3.47;;;27.40;38.80;;;;;;4922739;29;20251;-86
2022/05/18 13:14:05;;;;;;;17.92;2.83;;;27.40;38.40;;;;;;4925064;29;20472;-84
2022/05/18 13:17:11;;;;;;;6.68;2.30;;;27.20;38.60;;;;;;4924680;29;20066;-83
2022/05/18 13:19:45;;;;;;;7.63;2.30;;;27.00;38.90;;;;;;4931974;29;20099;-83
2022/05/18 13:22:26;;;;;;;5.68;1.60;;;26.80;39.10;;;;;;4928241;29;20055;-78
2022/05/18 13:24:56;;;;;;;3.97;2.10;;;26.70;39.60;;;;;;4931688;29;20052;-78
2022/05/18 13:27:30;;;;;;;5.72;1.65;;;26.80;39.60;;;;;;4930115;29;20095;-78
2022/05/18 13:30:00;;;;;;;3.63;1.75;;;27.00;38.80;;;;;;4928122;29;20079;-78
2022/05/18 13:32:28;;;;;;;6.07;1.88;;;26.50;39.90;;;;;;4926301;29;20511;-77